Time;durP1;ratioP1;P1;durP2;ratioP2;P2;SDS_P1;SDS_P2;PMS_P1;PMS_P2;Temp;Humidity;BMP_temperature;BMP_pressure;BME280_temperature;BME280_humidity;BME280_pressure;Samples;Min_cycle;Max_cycle;Signal;HPM_P1;HPM_P2
2023/01/28 00:00:26;;;;;;;5.95;2.40;;;;;;;4.54;38.13;103048.31;7400773;19;20357;-63
2023/01/28 00:02:52;;;;;;;6.45;3.15;;;;;;;4.60;37.93;103044.63;7398770;19;20032;-63
2023/01/28 00:05:18;;;;;;;6.47;2.70;;;;;;;4.64;37.86;103049.31;7400327;19;20005;-63
2023/01/28 00:07:43;;;;;;;9.00;2.60;;;;;;;4.74;37.64;103048.66;7397263;19;20316;-63
2023/01/28 00:10:10;;;;;;;7.68;3.03;;;;;;;4.64;37.48;103046.59;7400585;19;20079;-62
2023/01/28 00:12:35;;;;;;;6.30;2.67;;;;;;;4.50;37.88;103056.09;7398854;19;20008;-63
2023/01/28 00:15:01;;;;;;;5.10;2.03;;;;;;;4.54;37.82;103056.41;7395144;19;20062;-63
2023/01/28 00:17:27;;;;;;;4.82;2.20;;;;;;;4.61;37.54;103059.81;7395962;19;19998;-62
2023/01/28 00:19:53;;;;;;;6.80;1.98;;;;;;;4.52;37.62;103063.97;7393187;19;20478;-62
2023/01/28 00:22:19;;;;;;;6.68;2.38;;;;;;;4.57;37.58;103053.22;7394955;19;20005;-64
2023/01/28 00:24:45;;;;;;;7.93;2.10;;;;;;;4.62;37.36;103053.31;7396291;19;20515;-60
2023/01/28 00:27:11;;;;;;;4.55;1.77;;;;;;;4.52;37.59;103051.28;7391612;19;20062;-62
2023/01/28 00:29:37;;;;;;;7.32;2.30;;;;;;;4.42;37.92;103049.22;7396146;19;20006;-61
2023/01/28 00:32:03;;;;;;;6.40;2.17;;;;;;;4.35;37.92;103043.13;7394988;19;20009;-62
2023/01/28 00:34:29;;;;;;;5.43;2.00;;;;;;;4.48;37.92;103046.59;7395996;19;19998;-62
2023/01/28 00:36:57;;;;;;;5.53;2.05;;;;;;;4.52;37.59;103045.03;7395511;19;20459;-62
2023/01/28 00:39:24;;;;;;;6.72;2.28;;;;;;;4.55;37.25;103047.25;7395353;19;20130;-62
2023/01/28 00:41:51;;;;;;;5.43;2.17;;;;;;;4.61;37.03;103052.50;7395132;19;20002;-62
2023/01/28 00:44:18;;;;;;;5.40;2.35;;;;;;;4.57;37.40;103051.38;7393204;19;20029;-61
2023/01/28 00:46:44;;;;;;;7.20;2.08;;;;;;;4.42;37.76;103040.25;7393526;19;20003;-61
2023/01/28 00:49:10;;;;;;;8.70;2.00;;;;;;;4.42;37.61;103051.09;7393905;19;20005;-62
2023/01/28 00:51:36;;;;;;;5.22;2.00;;;;;;;4.31;37.76;103050.09;7395054;19;20203;-62
2023/01/28 00:54:02;;;;;;;5.57;2.20;;;;;;;4.33;37.66;103047.16;7395426;19;20002;-62
2023/01/28 00:56:28;;;;;;;6.95;2.00;;;;;;;4.32;37.98;103051.75;7395292;19;20016;-62
2023/01/28 00:58:54;;;;;;;4.63;1.95;;;;;;;4.42;37.61;103041.09;7392438;19;20301;-62
2023/01/28 01:01:23;;;;;;;4.43;1.90;;;;;;;4.39;37.47;103047.00;7392392;19;20003;-61
2023/01/28 01:04:01;;;;;;;5.57;1.60;;;;;;;4.36;37.56;103042.06;7391306;19;19998;-61
2023/01/28 01:06:38;;;;;;;5.95;2.08;;;;;;;4.15;37.87;103048.19;7393747;19;20495;-61
2023/01/28 01:09:06;;;;;;;5.55;1.77;;;;;;;3.98;38.57;103042.72;7394418;19;20003;-61
2023/01/28 01:11:33;;;;;;;4.32;1.90;;;;;;;4.07;38.74;103052.91;7394507;19;20020;-61
2023/01/28 01:13:59;;;;;;;10.13;2.22;;;;;;;4.40;38.01;103053.22;7394746;19;20006;-61
2023/01/28 01:16:32;;;;;;;3.55;1.65;;;;;;;4.57;37.75;103058.63;7393834;19;20431;-61
2023/01/28 01:18:58;;;;;;;4.55;1.63;;;;;;;4.49;37.36;103056.34;7394089;19;19995;-61
2023/01/28 01:21:27;;;;;;;3.88;1.63;;;;;;;4.39;37.64;103060.53;7394047;19;20003;-62
2023/01/28 01:23:52;;;;;;;6.55;1.60;;;;;;;4.24;38.17;103046.72;7394643;19;20013;-62
2023/01/28 01:26:18;;;;;;;6.78;1.95;;;;;;;4.20;38.26;103051.78;7393151;19;20007;-62
2023/01/28 01:28:45;;;;;;;5.80;2.00;;;;;;;4.37;38.08;103054.53;7393623;19;20011;-62
2023/01/28 01:31:14;;;;;;;5.03;1.77;;;;;;;4.37;37.84;103054.53;7395270;19;20430;-62
2023/01/28 01:33:41;;;;;;;6.82;1.70;;;;;;;4.50;37.58;103050.69;7392396;19;20003;-62
2023/01/28 01:36:08;;;;;;;5.03;1.95;;;;;;;4.48;37.51;103054.72;7392118;19;20418;-61
2023/01/28 01:38:35;;;;;;;6.70;1.92;;;;;;;4.55;37.28;103050.75;7393341;19;20336;-61
2023/01/28 01:41:02;;;;;;;5.57;1.70;;;;;;;4.41;37.53;103052.97;7393143;19;20016;-62
2023/01/28 01:43:50;;;;;;;3.08;1.60;;;;;;;4.32;37.39;103049.03;7391210;19;20538;-63
2023/01/28 01:46:24;;;;;;;6.90;1.90;;;;;;;4.44;37.23;103041.66;7393174;19;19998;-64
2023/01/28 01:48:52;;;;;;;7.85;1.85;;;;;;;4.38;37.25;103048.06;7392877;19;20002;-63
2023/01/28 01:51:24;;;;;;;3.70;1.75;;;;;;;4.41;37.28;103047.56;7391529;19;20001;-62
2023/01/28 01:53:53;;;;;;;6.15;1.98;;;;;;;4.52;37.05;103040.47;7389255;19;20574;-62
2023/01/28 01:56:22;;;;;;;6.53;1.92;;;;;;;4.68;36.82;103040.72;7391390;19;19998;-62
2023/01/28 01:58:52;;;;;;;6.22;1.85;;;;;;;4.22;37.77;103038.88;7392074;19;20003;-62
2023/01/28 02:01:25;;;;;;;6.18;2.20;;;;;;;4.18;38.11;103031.47;7390690;19;20003;-64
2023/01/28 02:03:54;;;;;;;8.48;2.38;;;;;;;3.88;38.53;103037.94;7391488;19;20001;-63
2023/01/28 02:06:22;;;;;;;4.22;1.98;;;;;;;3.86;38.85;103037.38;7390178;19;19999;-63
2023/01/28 02:08:47;;;;;;;4.60;1.90;;;;;;;3.80;38.82;103036.44;7392690;19;20011;-64
2023/01/28 02:11:15;;;;;;;3.58;2.00;;;;;;;4.02;38.94;103036.59;7390878;19;19998;-63
2023/01/28 02:13:46;;;;;;;5.57;2.10;;;;;;;4.15;38.51;103046.28;7389659;19;19999;-63
2023/01/28 02:16:12;;;;;;;4.60;2.25;;;;;;;3.83;38.82;103045.94;7392208;19;20022;-63
2023/01/28 02:18:38;;;;;;;4.00;2.08;;;;;;;3.78;38.70;103045.84;7392356;19;19995;-64
2023/01/28 02:21:41;;;;;;;4.32;2.13;;;;;;;3.92;38.52;103049.94;7392118;19;20485;-64
2023/01/28 02:24:26;;;;;;;6.50;2.00;;;;;;;3.98;38.37;103054.34;7391924;19;20006;-64
2023/01/28 02:27:10;;;;;;;7.90;2.30;;;;;;;3.99;38.89;103056.00;7390712;19;19994;-65
2023/01/28 02:29:35;;;;;;;8.57;2.13;;;;;;;4.08;38.81;103054.53;7392751;19;19994;-65
2023/01/28 02:32:16;;;;;;;5.20;1.98;;;;;;;4.04;38.53;103053.41;7390886;19;19995;-66
2023/01/28 02:34:50;;;;;;;5.10;2.00;;;;;;;3.93;38.75;103050.75;7390206;19;19994;-65
2023/01/28 02:37:26;;;;;;;7.32;2.17;;;;;;;3.82;38.94;103045.16;7391054;19;20109;-65
2023/01/28 02:39:58;;;;;;;5.15;2.70;;;;;;;3.82;39.09;103039.75;7392000;19;20002;-65
2023/01/28 02:42:29;;;;;;;5.22;2.10;;;;;;;3.84;39.22;103042.19;7390870;19;20015;-65
2023/01/28 02:44:55;;;;;;;5.07;2.38;;;;;;;3.99;38.63;103050.59;7392090;19;20002;-66
2023/01/28 02:50:13;;;;;;;6.93;2.38;;;;;;;3.95;38.42;103048.59;7391436;19;19990;-66
2023/01/28 02:56:38;;;;;;;5.50;2.65;;;;;;;3.55;38.99;103052.94;7391247;19;20010;-65
2023/01/28 02:59:34;;;;;;;6.70;2.40;;;;;;;3.39;39.67;103050.97;7387006;19;19994;-65
2023/01/28 03:02:09;;;;;;;5.88;2.40;;;;;;;3.79;39.08;103048.31;7386581;19;20006;-65
2023/01/28 03:04:46;;;;;;;6.65;2.33;;;;;;;3.98;38.43;103043.53;7390118;19;20011;-65
2023/01/28 03:07:15;;;;;;;6.03;2.60;;;;;;;4.16;37.80;103045.22;7388943;19;20009;-65
2023/01/28 03:09:50;;;;;;;8.25;2.50;;;;;;;4.07;37.67;103043.97;7391000;19;20030;-65
2023/01/28 03:38:16;;;;;;;7.25;2.35;;;;;;;4.07;37.17;103052.91;7397197;19;20107;-63
2023/01/28 03:40:51;;;;;;;6.10;2.13;;;;;;;3.96;37.26;103042.97;7397987;19;20009;-62
2023/01/28 03:43:17;;;;;;;5.80;2.30;;;;;;;3.76;37.52;103046.09;7394988;19;20010;-62
2023/01/28 03:45:45;;;;;;;8.10;2.63;;;;;;;3.81;37.27;103048.91;7397127;19;20093;-62
2023/01/28 03:48:12;;;;;;;7.75;2.35;;;;;;;3.67;38.10;103059.16;7396752;19;20007;-65
2023/01/28 03:50:38;;;;;;;5.43;2.30;;;;;;;3.95;37.79;103065.63;7397078;19;20006;-66
2023/01/28 03:53:14;;;;;;;5.35;2.67;;;;;;;4.14;37.49;103057.34;7395669;19;20003;-65
2023/01/28 03:55:44;;;;;;;5.85;2.50;;;;;;;4.15;37.55;103056.28;7397393;19;20011;-64
2023/01/28 03:58:11;;;;;;;5.93;2.88;;;;;;;4.21;37.49;103050.72;7395923;19;20082;-63
2023/01/28 04:00:40;;;;;;;8.65;3.40;;;;;;;4.19;37.43;103052.06;7397097;19;20108;-64
2023/01/28 04:03:15;;;;;;;8.30;3.03;;;;;;;3.70;37.89;103056.00;7395863;19;20076;-64
2023/01/28 04:06:05;;;;;;;8.05;3.00;;;;;;;3.49;38.58;103049.31;7396765;19;20012;-64
2023/01/28 04:08:31;;;;;;;8.23;3.05;;;;;;;3.76;38.21;103056.09;7395689;19;20006;-63
2023/01/28 04:10:57;;;;;;;7.50;3.05;;;;;;;3.64;38.09;103054.22;7394845;19;20003;-62
2023/01/28 04:13:23;;;;;;;8.30;3.45;;;;;;;3.60;38.22;103047.66;7393997;19;20074;-63
2023/01/28 04:15:50;;;;;;;7.15;3.10;;;;;;;3.63;38.45;103047.19;7396746;19;20013;-63
2023/01/28 04:18:16;;;;;;;8.20;3.17;;;;;;;3.47;38.97;103046.06;7395256;19;20007;-63
2023/01/28 04:20:42;;;;;;;8.07;2.83;;;;;;;3.74;38.64;103039.28;7394825;19;20025;-63
2023/01/28 04:23:08;;;;;;;7.07;3.20;;;;;;;3.63;38.93;103040.97;7393619;19;20002;-65
2023/01/28 04:25:34;;;;;;;6.95;3.08;;;;;;;3.82;38.68;103044.31;7395805;19;19998;-66
2023/01/28 04:28:00;;;;;;;6.95;3.60;;;;;;;3.99;38.56;103053.31;7395308;19;20069;-65
2023/01/28 04:30:26;;;;;;;6.85;3.75;;;;;;;3.99;38.38;103052.50;7395449;19;20024;-66
2023/01/28 04:32:53;;;;;;;8.60;3.42;;;;;;;3.67;38.90;103053.75;7394162;19;19995;-66
2023/01/28 04:35:19;;;;;;;8.15;3.50;;;;;;;3.66;38.98;103057.50;7395917;19;20496;-66
2023/01/28 04:37:45;;;;;;;10.52;3.80;;;;;;;3.71;38.80;103049.50;7394602;19;19995;-67
2023/01/28 04:40:12;;;;;;;7.93;3.80;;;;;;;3.57;39.12;103050.00;7395686;19;19999;-67
2023/01/28 04:42:38;;;;;;;7.78;3.67;;;;;;;3.42;39.40;103047.78;7389490;19;20022;-65
2023/01/28 04:45:04;;;;;;;9.95;3.45;;;;;;;3.51;39.76;103051.78;7399377;19;20348;-64
2023/01/28 04:47:30;;;;;;;7.80;3.63;;;;;;;3.80;39.05;103059.94;7392391;19;20002;-65
2023/01/28 04:49:56;;;;;;;8.30;3.85;;;;;;;3.77;38.98;103063.94;7395235;19;20085;-66
2023/01/28 04:52:22;;;;;;;11.18;3.78;;;;;;;4.06;38.31;103059.38;7394645;19;20001;-65
2023/01/28 04:54:48;;;;;;;6.75;3.42;;;;;;;4.01;38.43;103053.06;7394614;19;19995;-64
2023/01/28 04:57:15;;;;;;;7.07;3.90;;;;;;;4.05;38.07;103046.94;7393976;19;20001;-65
2023/01/28 04:59:41;;;;;;;9.35;4.00;;;;;;;4.01;38.07;103050.34;7394461;19;19998;-64
2023/01/28 05:02:07;;;;;;;8.73;4.22;;;;;;;3.98;37.95;103046.25;7394832;19;20015;-66
2023/01/28 05:04:32;;;;;;;10.32;4.88;;;;;;;3.59;38.46;103042.50;7394185;19;20158;-64
2023/01/28 05:06:58;;;;;;;11.80;5.20;;;;;;;3.57;38.83;103033.81;7393064;19;20328;-66
2023/01/28 05:09:24;;;;;;;12.02;5.20;;;;;;;3.41;39.08;103038.06;7393900;19;20491;-65
2023/01/28 05:11:50;;;;;;;8.82;4.50;;;;;;;3.39;39.20;103032.06;7394504;19;20466;-64
2023/01/28 05:14:15;;;;;;;10.25;5.40;;;;;;;3.26;39.52;103023.16;7392666;19;20002;-67
2023/01/28 05:16:42;;;;;;;8.95;5.07;;;;;;;3.24;39.84;103016.38;7394088;19;20006;-65
2023/01/28 05:19:07;;;;;;;9.15;4.80;;;;;;;3.14;39.94;103033.97;7393407;19;20054;-62
2023/01/28 05:21:33;;;;;;;10.90;5.63;;;;;;;3.24;39.78;103038.78;7394333;19;19999;-64
2023/01/28 05:23:59;;;;;;;9.68;5.68;;;;;;;3.17;39.84;103027.28;7390942;19;20054;-63
2023/01/28 05:26:25;;;;;;;11.15;5.55;;;;;;;2.97;40.09;103033.06;7393216;19;19995;-61
2023/01/28 05:28:51;;;;;;;15.20;6.15;;;;;;;3.06;40.32;103022.72;7391114;19;20015;-62
2023/01/28 05:31:16;;;;;;;10.18;5.55;;;;;;;3.33;39.89;103031.13;7393807;19;20027;-65
2023/01/28 05:33:43;;;;;;;10.55;5.68;;;;;;;3.57;39.08;103026.53;7391827;19;20061;-64
2023/01/28 05:36:09;;;;;;;12.45;6.65;;;;;;;3.49;39.18;103018.81;7394271;19;20447;-64
2023/01/28 05:38:35;;;;;;;10.18;5.72;;;;;;;3.47;39.31;103020.91;7393097;19;20015;-66
2023/01/28 05:41:00;;;;;;;9.60;5.35;;;;;;;3.48;39.08;103023.38;7393509;19;20490;-67
2023/01/28 05:43:27;;;;;;;10.20;4.82;;;;;;;3.49;39.03;103029.63;7391326;19;20022;-66
2023/01/28 05:45:53;;;;;;;9.90;5.65;;;;;;;3.57;38.96;103029.25;7393348;19;20036;-66
2023/01/28 05:48:19;;;;;;;10.18;5.53;;;;;;;3.60;38.79;103023.34;7392806;19;19995;-65
2023/01/28 05:50:47;;;;;;;10.40;6.30;;;;;;;3.60;38.90;103022.53;7393003;19;20020;-64
2023/01/28 05:53:13;;;;;;;11.32;5.68;;;;;;;3.46;39.37;103024.69;7390193;19;20479;-64
2023/01/28 05:55:39;;;;;;;10.23;5.95;;;;;;;3.57;38.99;103028.41;7392845;19;20002;-65
2023/01/28 05:58:05;;;;;;;13.70;6.93;;;;;;;3.49;39.37;103030.44;7391683;19;20036;-62
2023/01/28 06:00:31;;;;;;;12.02;7.40;;;;;;;3.60;39.05;103031.44;7392766;19;19995;-62
2023/01/28 06:02:56;;;;;;;13.02;7.35;;;;;;;3.62;39.01;103031.22;7391942;19;20051;-63
2023/01/28 06:05:22;;;;;;;13.02;7.38;;;;;;;3.42;39.59;103028.88;7390900;19;20038;-63
2023/01/28 06:07:49;;;;;;;13.23;8.75;;;;;;;3.34;39.69;103030.09;7390426;19;20463;-62
2023/01/28 06:10:18;;;;;;;16.08;10.35;;;;;;;3.42;39.59;103021.63;7391948;19;19998;-63
2023/01/28 06:12:44;;;;;;;16.40;10.50;;;;;;;3.35;39.75;103018.22;7392060;19;20002;-63
2023/01/28 06:15:10;;;;;;;15.40;10.30;;;;;;;3.31;39.65;103022.44;7392544;19;20532;-63
2023/01/28 06:17:36;;;;;;;17.50;10.82;;;;;;;3.34;39.53;103021.97;7389982;19;20515;-64
2023/01/28 06:20:03;;;;;;;18.40;11.85;;;;;;;3.32;39.69;103024.91;7391972;19;20034;-62
2023/01/28 06:22:29;;;;;;;19.20;11.68;;;;;;;3.29;39.75;103009.19;7391510;19;20003;-63
2023/01/28 06:24:54;;;;;;;17.08;10.88;;;;;;;3.39;39.64;103000.50;7392153;19;20030;-63
2023/01/28 06:27:20;;;;;;;19.10;12.02;;;;;;;3.21;39.71;103004.16;7390220;19;20003;-64
2023/01/28 06:29:46;;;;;;;18.40;11.75;;;;;;;3.27;39.56;103015.88;7391495;19;20002;-62
2023/01/28 06:32:12;;;;;;;16.45;11.18;;;;;;;3.16;39.77;103012.94;7389481;19;20429;-63
2023/01/28 06:34:38;;;;;;;18.98;11.90;;;;;;;3.01;40.09;103011.81;7390952;19;19999;-64
2023/01/28 06:37:10;;;;;;;19.00;12.02;;;;;;;2.99;40.04;103009.34;7390884;19;20005;-64
2023/01/28 06:39:36;;;;;;;17.88;12.13;;;;;;;2.82;40.54;103025.41;7391978;19;20404;-64
2023/01/28 06:42:02;;;;;;;19.65;12.35;;;;;;;2.81;40.45;103023.75;7391162;19;20023;-62
2023/01/28 06:44:27;;;;;;;16.90;11.63;;;;;;;2.88;40.27;103012.84;7389354;19;20039;-63
2023/01/28 06:46:53;;;;;;;19.88;12.32;;;;;;;2.81;40.46;103012.97;7388543;19;20022;-62
2023/01/28 06:49:20;;;;;;;20.92;12.30;;;;;;;2.75;40.62;103003.94;7390403;19;20054;-63
2023/01/28 06:51:46;;;;;;;19.30;12.10;;;;;;;2.72;40.38;103003.59;7390024;19;20451;-64
2023/01/28 06:54:12;;;;;;;18.98;11.88;;;;;;;2.46;41.16;103011.06;7389218;19;20082;-63
2023/01/28 06:56:38;;;;;;;17.80;11.93;;;;;;;2.43;41.36;103016.91;7391616;19;19999;-63
2023/01/28 06:59:04;;;;;;;18.23;12.20;;;;;;;2.67;40.78;103033.13;7390513;19;19999;-61
2023/01/28 07:01:30;;;;;;;19.23;12.30;;;;;;;2.82;40.64;103038.06;7390668;19;20003;-62
2023/01/28 07:03:56;;;;;;;19.25;12.75;;;;;;;2.73;40.78;103032.19;7388766;19;20442;-61
2023/01/28 07:06:22;;;;;;;19.35;12.30;;;;;;;2.81;40.57;103033.75;7390595;19;20078;-62
2023/01/28 07:08:48;;;;;;;19.70;12.63;;;;;;;2.66;40.77;103034.19;7390218;19;19999;-63
2023/01/28 07:11:14;;;;;;;19.83;12.32;;;;;;;2.65;41.08;103043.31;7390666;19;19995;-62
2023/01/28 07:13:40;;;;;;;19.13;12.65;;;;;;;2.55;41.17;103044.72;7388008;19;19998;-63
2023/01/28 07:16:06;;;;;;;23.50;13.95;;;;;;;2.65;40.95;103048.72;7390858;19;19999;-62
2023/01/28 07:18:32;;;;;;;18.23;12.88;;;;;;;2.76;40.62;103056.00;7389937;19;20030;-62
2023/01/28 07:20:58;;;;;;;19.98;12.73;;;;;;;2.66;40.77;103055.75;7388652;19;19998;-62
2023/01/28 07:23:24;;;;;;;20.23;13.40;;;;;;;2.35;41.29;103057.66;7389250;19;20089;-62
2023/01/28 07:25:50;;;;;;;19.38;12.68;;;;;;;2.40;41.35;103065.88;7390166;19;20509;-61
2023/01/28 07:28:20;;;;;;;20.45;13.05;;;;;;;2.47;41.27;103072.03;7387546;19;19999;-61
2023/01/28 07:30:48;;;;;;;18.75;12.90;;;;;;;2.45;41.16;103082.22;7389833;19;19999;-62
2023/01/28 07:33:13;;;;;;;18.02;12.38;;;;;;;2.43;41.26;103087.00;7387426;19;20023;-63
2023/01/28 07:35:39;;;;;;;19.85;12.93;;;;;;;2.57;41.15;103093.03;7389776;19;19998;-63
2023/01/28 07:38:05;;;;;;;20.65;13.00;;;;;;;2.51;41.24;103091.25;7389291;19;20317;-62
2023/01/28 07:40:38;;;;;;;20.45;12.82;;;;;;;2.49;41.10;103096.88;7389728;19;20022;-62
2023/01/28 07:43:06;;;;;;;21.80;14.18;;;;;;;2.59;40.96;103102.53;7386216;19;20506;-61
2023/01/28 07:45:31;;;;;;;19.77;11.88;;;;;;;2.57;41.40;103099.25;7387176;19;20340;-62
2023/01/28 07:48:03;;;;;;;18.70;12.65;;;;;;;2.44;41.56;103094.03;7387177;19;20023;-62
2023/01/28 07:50:31;;;;;;;20.92;12.68;;;;;;;2.46;41.61;103091.94;7389988;19;20370;-62
2023/01/28 07:52:58;;;;;;;20.80;12.95;;;;;;;2.55;41.27;103095.97;7388818;19;20003;-62
2023/01/28 07:55:24;;;;;;;20.98;13.15;;;;;;;2.71;41.06;103099.84;7388720;19;20439;-62
2023/01/28 07:57:55;;;;;;;21.25;13.23;;;;;;;2.95;40.80;103107.97;7389066;19;20042;-62
2023/01/28 08:00:22;;;;;;;21.02;12.98;;;;;;;2.85;40.95;103108.56;7395311;19;20013;-64
2023/01/28 08:02:49;;;;;;;21.92;12.90;;;;;;;2.98;40.58;103105.66;7395480;19;20006;-62
2023/01/28 08:05:19;;;;;;;20.10;13.27;;;;;;;3.03;40.98;103094.16;7396950;19;20002;-63
2023/01/28 08:07:49;;;;;;;22.20;13.25;;;;;;;3.09;40.48;103095.91;7393856;19;20424;-61
2023/01/28 08:10:16;;;;;;;21.63;14.10;;;;;;;3.22;40.30;103100.28;7395950;19;20014;-63
2023/01/28 08:13:00;;;;;;;19.98;12.75;;;;;;;3.38;39.85;103100.63;7395404;19;20034;-62
2023/01/28 08:15:27;;;;;;;21.25;13.13;;;;;;;3.26;39.95;103106.84;7396890;19;20087;-63
2023/01/28 08:17:55;;;;;;;20.02;12.52;;;;;;;3.28;39.92;103101.19;7395434;19;20003;-60
2023/01/28 08:20:22;;;;;;;19.10;12.25;;;;;;;3.27;39.75;103108.47;7396387;19;20007;-61
2023/01/28 08:22:47;;;;;;;22.27;13.23;;;;;;;3.13;39.92;103099.78;7395135;19;20003;-62
2023/01/28 08:25:13;;;;;;;18.90;12.55;;;;;;;3.21;40.03;103111.31;7396256;19;20481;-63
2023/01/28 08:27:39;;;;;;;21.13;12.90;;;;;;;3.07;40.33;103102.59;7392614;19;20019;-61
2023/01/28 08:30:06;;;;;;;21.13;13.43;;;;;;;3.08;40.00;103102.34;7395935;19;20010;-63
2023/01/28 08:32:31;;;;;;;22.63;12.93;;;;;;;2.98;40.45;103111.06;7395437;19;20011;-62
2023/01/28 08:34:58;;;;;;;21.25;13.32;;;;;;;3.08;40.19;103115.03;7395614;19;20023;-62
2023/01/28 08:37:24;;;;;;;19.85;13.02;;;;;;;3.15;40.13;103113.03;7394697;19;20003;-63
2023/01/28 08:39:49;;;;;;;21.88;14.00;;;;;;;3.32;39.78;103105.91;7395002;19;20432;-62
2023/01/28 08:42:15;;;;;;;21.08;13.20;;;;;;;3.31;39.72;103103.44;7395422;19;20462;-63
2023/01/28 08:44:41;;;;;;;19.70;13.38;;;;;;;3.27;39.83;103103.09;7392485;19;20562;-63
2023/01/28 08:47:07;;;;;;;23.75;14.18;;;;;;;3.31;39.58;103104.25;7393520;19;19999;-64
2023/01/28 08:49:33;;;;;;;22.17;14.57;;;;;;;3.35;39.64;103110.00;7394962;19;19994;-64
2023/01/28 08:51:59;;;;;;;24.65;14.80;;;;;;;3.48;39.35;103106.28;7394240;19;20087;-63
2023/01/28 08:54:24;;;;;;;22.77;15.27;;;;;;;3.55;39.24;103109.66;7395463;19;20665;-63
2023/01/28 08:56:57;;;;;;;21.50;14.30;;;;;;;3.58;39.31;103106.50;7392802;19;20082;-62
2023/01/28 08:59:23;;;;;;;21.25;14.93;;;;;;;3.46;39.24;103105.69;7395045;19;20018;-64
2023/01/28 09:01:49;;;;;;;24.38;15.40;;;;;;;3.55;38.93;103106.97;7394501;19;20009;-63
2023/01/28 09:04:14;;;;;;;24.02;16.38;;;;;;;3.69;38.90;103112.94;7392709;19;20010;-63
2023/01/28 09:06:40;;;;;;;22.20;15.10;;;;;;;3.68;38.50;103117.50;7393113;19;20026;-61
2023/01/28 09:09:06;;;;;;;23.67;15.18;;;;;;;3.56;38.77;103122.13;7394055;19;20666;-62
2023/01/28 09:11:32;;;;;;;24.08;15.32;;;;;;;3.76;38.74;103127.13;7393752;19;20368;-63
2023/01/28 09:13:57;;;;;;;21.15;14.77;;;;;;;3.83;38.76;103135.09;7394543;19;20002;-62
2023/01/28 09:16:24;;;;;;;23.77;15.25;;;;;;;3.75;38.69;103151.69;7394199;19;20011;-63
2023/01/28 09:18:50;;;;;;;23.55;14.70;;;;;;;3.85;38.31;103151.91;7393650;19;20069;-67
2023/01/28 09:21:16;;;;;;;23.90;15.80;;;;;;;3.88;38.33;103156.84;7392017;19;20007;-67
2023/01/28 09:23:42;;;;;;;23.25;14.98;;;;;;;3.85;38.44;103160.00;7392796;19;20019;-63
2023/01/28 09:26:08;;;;;;;23.20;14.40;;;;;;;3.92;38.30;103165.28;7390397;19;20019;-61
2023/01/28 09:28:34;;;;;;;23.85;15.40;;;;;;;3.95;38.32;103165.63;7393097;19;20011;-60
2023/01/28 09:31:06;;;;;;;25.20;16.65;;;;;;;4.05;38.41;103176.66;7392731;19;20482;-61
2023/01/28 09:33:32;;;;;;;33.58;15.18;;;;;;;4.15;38.39;103175.22;7391481;19;20504;-60
2023/01/28 09:35:59;;;;;;;23.08;15.63;;;;;;;4.29;37.95;103176.59;7391062;19;19998;-61
2023/01/28 09:38:25;;;;;;;22.80;15.75;;;;;;;4.30;38.01;103169.31;7392843;19;20002;-61
2023/01/28 09:40:52;;;;;;;21.52;14.45;;;;;;;4.30;37.94;103170.09;7393839;19;20002;-60
2023/01/28 09:43:24;;;;;;;22.13;14.40;;;;;;;4.20;38.11;103181.53;7390671;19;20616;-60
2023/01/28 09:45:54;;;;;;;21.50;13.88;;;;;;;4.08;38.42;103173.47;7392959;19;20038;-60
2023/01/28 09:48:24;;;;;;;21.67;13.15;;;;;;;4.23;38.23;103186.47;7392419;19;20015;-61
2023/01/28 09:50:53;;;;;;;20.60;13.70;;;;;;;4.22;38.17;103178.59;7393364;19;20003;-59
2023/01/28 09:53:27;;;;;;;20.05;13.02;;;;;;;4.25;38.14;103184.38;7391293;19;20013;-62
2023/01/28 09:56:05;;;;;;;22.17;13.50;;;;;;;4.26;38.00;103179.78;7392916;19;20010;-60
2023/01/28 09:58:31;;;;;;;19.92;13.32;;;;;;;4.13;38.24;103174.66;7391342;19;20009;-60
2023/01/28 10:01:19;;;;;;;20.58;13.93;;;;;;;4.15;38.12;103180.63;7390842;19;20006;-60
2023/01/28 10:04:04;;;;;;;22.42;14.60;;;;;;;4.22;38.32;103174.03;7389761;19;20010;-61
2023/01/28 10:06:40;;;;;;;20.65;13.25;;;;;;;4.30;38.27;103170.09;7392049;19;20066;-60
2023/01/28 10:09:24;;;;;;;23.08;14.50;;;;;;;4.45;38.15;103167.72;7391106;19;20070;-61
2023/01/28 10:12:33;;;;;;;20.73;13.60;;;;;;;4.34;38.07;103163.19;7392082;19;20003;-59
2023/01/28 10:15:37;;;;;;;22.27;14.48;;;;;;;4.58;37.95;103155.78;7391839;19;20485;-60
2023/01/28 10:18:11;;;;;;;22.73;14.35;;;;;;;4.72;37.85;103150.06;7391826;19;20011;-63
2023/01/28 10:20:47;;;;;;;20.70;13.93;;;;;;;4.70;38.05;103141.38;7390165;19;20006;-63
2023/01/28 10:23:42;;;;;;;21.48;12.98;;;;;;;4.57;37.94;103139.78;7389440;19;20001;-61
2023/01/28 10:26:20;;;;;;;19.67;13.05;;;;;;;4.62;38.31;103135.31;7391301;19;19995;-60
2023/01/28 10:28:52;;;;;;;21.98;13.23;;;;;;;4.62;38.02;103145.28;7390103;19;19998;-61
2023/01/28 10:31:20;;;;;;;19.55;12.73;;;;;;;4.62;37.98;103129.06;7391189;19;20022;-61
2023/01/28 10:33:46;;;;;;;19.85;13.35;;;;;;;4.67;38.19;103125.63;7390552;19;20058;-66
2023/01/28 10:36:14;;;;;;;22.45;13.30;;;;;;;4.70;38.03;103128.66;7391313;19;20406;-65
2023/01/28 10:38:39;;;;;;;20.17;12.73;;;;;;;4.75;38.13;103122.53;7390606;19;20006;-61
2023/01/28 10:41:05;;;;;;;21.75;13.15;;;;;;;4.80;38.03;103128.00;7390706;19;19995;-61
2023/01/28 10:43:34;;;;;;;20.90;13.57;;;;;;;4.86;37.88;103124.34;7389315;19;20011;-61
2023/01/28 10:46:21;;;;;;;20.10;13.43;;;;;;;4.88;37.83;103105.16;7390675;19;19990;-63
2023/01/28 10:48:56;;;;;;;22.20;13.00;;;;;;;4.90;37.89;103108.44;7390451;19;20062;-66
2023/01/28 10:51:34;;;;;;;20.20;12.90;;;;;;;4.94;37.70;103096.88;7390934;19;20361;-61
2023/01/28 10:54:00;;;;;;;19.80;12.57;;;;;;;4.86;37.85;103091.06;7389653;19;20003;-61
2023/01/28 10:56:29;;;;;;;19.50;12.23;;;;;;;4.85;38.01;103089.41;7387986;19;20475;-61
2023/01/28 10:59:03;;;;;;;21.60;12.88;;;;;;;4.76;38.26;103075.47;7390402;19;19995;-62
2023/01/28 11:01:49;;;;;;;20.38;12.45;;;;;;;4.74;38.12;103086.53;7390217;19;20027;-61
2023/01/28 11:04:35;;;;;;;20.35;11.70;;;;;;;4.73;38.14;103086.78;7388784;19;20692;-61
2023/01/28 11:07:20;;;;;;;18.63;11.35;;;;;;;4.58;38.44;103077.34;7388776;19;20019;-61
2023/01/28 11:09:49;;;;;;;20.40;11.25;;;;;;;4.54;38.47;103072.66;7392624;19;20011;-61
2023/01/28 11:12:29;;;;;;;20.75;12.60;;;;;;;4.59;38.29;103078.16;7389755;19;19999;-61
2023/01/28 11:15:03;;;;;;;19.73;11.50;;;;;;;4.54;38.50;103073.50;7388940;19;19998;-60
2023/01/28 11:17:36;;;;;;;17.77;11.23;;;;;;;4.63;38.49;103057.66;7388133;19;19999;-61
2023/01/28 11:20:17;;;;;;;19.48;12.25;;;;;;;4.62;38.55;103043.31;7389703;19;19998;-60
2023/01/28 11:22:44;;;;;;;18.55;11.70;;;;;;;4.66;38.66;103030.13;7389396;19;20067;-61
2023/01/28 11:25:22;;;;;;;19.25;11.27;;;;;;;4.66;38.61;103037.44;7391001;19;20012;-61
2023/01/28 11:27:50;;;;;;;20.95;13.10;;;;;;;4.75;38.46;103015.09;7386323;19;20011;-61
2023/01/28 11:30:29;;;;;;;24.75;14.07;;;;;;;4.64;38.59;102999.81;7390129;19;20007;-59
2023/01/28 11:33:25;;;;;;;22.88;13.18;;;;;;;4.85;38.27;103002.81;7389111;19;20011;-60
2023/01/28 11:35:56;;;;;;;23.65;13.02;;;;;;;5.04;37.90;102985.22;7397875;19;20080;-61
2023/01/28 11:38:24;;;;;;;22.20;13.13;;;;;;;5.03;38.20;102991.69;7395908;19;20003;-60
2023/01/28 11:40:55;;;;;;;21.40;12.60;;;;;;;5.03;38.42;103007.94;7394806;19;20034;-61
2023/01/28 11:43:24;;;;;;;18.92;12.32;;;;;;;5.23;37.98;103010.09;7392574;19;20026;-61
2023/01/28 11:45:56;;;;;;;20.27;12.32;;;;;;;5.36;37.86;103017.09;7397376;19;20007;-59
2023/01/28 11:48:40;;;;;;;19.58;11.77;;;;;;;5.37;37.86;103026.84;7396168;19;20002;-60
2023/01/28 11:51:20;;;;;;;20.58;12.18;;;;;;;5.45;37.49;103028.28;7395225;19;19998;-60
2023/01/28 11:53:53;;;;;;;20.10;12.48;;;;;;;5.40;37.71;103029.03;7393026;19;19998;-60
2023/01/28 11:56:26;;;;;;;20.08;12.25;;;;;;;5.45;37.69;103029.09;7396282;19;20293;-60
2023/01/28 11:59:03;;;;;;;21.98;12.25;;;;;;;5.70;37.35;103033.19;7396388;19;20002;-60
2023/01/28 12:01:39;;;;;;;21.17;12.70;;;;;;;5.70;37.15;103036.72;7395089;19;20113;-61
2023/01/28 12:04:17;;;;;;;19.33;11.98;;;;;;;5.71;37.24;103032.94;7394546;19;20022;-60
2023/01/28 12:07:13;;;;;;;19.00;12.02;;;;;;;5.72;37.56;103031.06;7394440;19;19991;-60